Time;durP1;ratioP1;P1;durP2;ratioP2;P2;SDS_P1;SDS_P2;PMS_P1;PMS_P2;Temp;Humidity;BMP_temperature;BMP_pressure;BME280_temperature;BME280_humidity;BME280_pressure;Samples;Min_cycle;Max_cycle;Signal;HPM_P1;HPM_P2
2022/12/29 00:01:17;;;;;;;18.33;11.95;;;;;;;9.37;81.05;101058.34;5055463;28;20048;-65
2022/12/29 00:03:45;;;;;;;18.10;11.20;;;;;;;9.35;81.22;101066.34;5057008;28;20143;-64
2022/12/29 00:06:11;;;;;;;24.55;14.52;;;;;;;9.36;81.47;101064.56;5058508;28;20036;-65
2022/12/29 00:08:39;;;;;;;260.70;84.68;;;;;;;9.27;81.55;101066.13;5058729;28;20796;-64
2022/12/29 00:11:11;;;;;;;49.85;24.77;;;;;;;9.04;81.69;101067.94;5017518;28;1168367;-65
2022/12/29 00:16:21;;;;;;;30.75;18.00;;;;;;;9.05;82.15;101074.06;5059743;28;20110;-63
2022/12/29 00:18:46;;;;;;;28.13;16.27;;;;;;;9.07;81.54;101072.13;5059581;28;20320;-66
2022/12/29 00:35:08;;;;;;;22.60;15.20;;;;;;;8.85;82.54;101094.94;5059220;28;20048;-67
2022/12/29 00:46:06;;;;;;;24.58;15.00;;;;;;;8.91;82.73;101097.09;5051309;28;20112;-66
2022/12/29 00:51:16;;;;;;;26.75;15.30;;;;;;;9.00;82.40;101100.84;5059571;28;20094;-66
2022/12/29 00:53:42;;;;;;;23.27;14.88;;;;;;;9.04;82.62;101115.50;5059579;28;20041;-63
2022/12/29 00:56:08;;;;;;;26.38;16.08;;;;;;;8.92;82.68;101109.34;5069136;28;20040;-64
2022/12/29 00:58:33;;;;;;;34.90;18.10;;;;;;;8.94;82.63;101104.78;5062275;28;20337;-63
2022/12/29 01:01:07;;;;;;;31.58;18.40;;;;;;;9.00;82.98;101108.75;5059328;28;20037;-63
2022/12/29 01:03:33;;;;;;;39.78;22.20;;;;;;;9.06;83.00;101116.22;5058564;28;20033;-63
2022/12/29 01:06:03;;;;;;;40.10;23.38;;;;;;;8.99;83.10;101109.72;5058582;28;20052;-66
2022/12/29 01:08:29;;;;;;;44.38;25.50;;;;;;;8.91;83.86;101098.91;5058325;28;20128;-66
2022/12/29 01:11:11;;;;;;;32.88;19.02;;;;;;;8.93;84.13;101091.69;5058340;28;20234;-65
2022/12/29 01:13:42;;;;;;;27.70;18.15;;;;;;;9.00;84.11;101100.00;5057742;28;20040;-63
2022/12/29 01:16:07;;;;;;;30.33;18.67;;;;;;;9.01;84.34;101096.38;5059011;28;20405;-63
2022/12/29 01:18:33;;;;;;;27.27;16.80;;;;;;;9.03;84.58;101097.13;5058509;28;20025;-66
2022/12/29 01:21:04;;;;;;;29.20;16.55;;;;;;;9.08;84.41;101093.16;5059008;28;20384;-66
2022/12/29 01:23:30;;;;;;;27.58;17.10;;;;;;;9.09;84.22;101089.56;5058519;28;20044;-64
2022/12/29 01:25:56;;;;;;;28.35;16.20;;;;;;;9.13;84.28;101096.28;5057771;28;20209;-65
2022/12/29 01:28:22;;;;;;;26.60;16.30;;;;;;;9.18;84.17;101091.47;5058773;28;20035;-64
2022/12/29 01:30:48;;;;;;;26.73;16.13;;;;;;;9.19;84.33;101092.31;5057689;28;20029;-64
2022/12/29 01:33:13;;;;;;;24.98;15.15;;;;;;;9.18;84.60;101099.41;5058874;28;20041;-64
2022/12/29 01:35:38;;;;;;;30.05;16.83;;;;;;;9.21;84.65;101096.50;5058936;28;20041;-64
2022/12/29 01:38:04;;;;;;;26.42;16.33;;;;;;;9.20;84.65;101097.47;5058940;28;20047;-64
2022/12/29 01:40:29;;;;;;;29.67;17.52;;;;;;;9.21;84.22;101093.03;5059299;28;20064;-63
2022/12/29 01:42:55;;;;;;;31.05;17.48;;;;;;;9.19;84.01;101089.66;5058313;28;20231;-65
2022/12/29 01:45:21;;;;;;;27.83;15.77;;;;;;;9.09;84.69;101078.97;5059177;28;20596;-67
2022/12/29 01:47:59;;;;;;;23.95;14.55;;;;;;;9.09;85.19;101075.50;5059260;28;20044;-67
2022/12/29 01:50:41;;;;;;;23.95;14.15;;;;;;;9.07;84.96;101074.78;5058074;28;20067;-66
2022/12/29 01:53:26;;;;;;;24.02;13.75;;;;;;;9.03;85.31;101071.53;5058858;28;20062;-67
2022/12/29 01:55:55;;;;;;;24.55;14.05;;;;;;;9.07;85.26;101067.69;5057260;28;20047;-64
2022/12/29 01:58:24;;;;;;;23.23;13.88;;;;;;;9.12;85.15;101060.25;5058432;28;20345;-67
2022/12/29 02:00:49;;;;;;;21.10;13.05;;;;;;;9.18;85.11;101058.91;5057239;28;20041;-65
2022/12/29 02:03:17;;;;;;;21.77;12.98;;;;;;;9.24;84.84;101055.78;5058064;28;20033;-66
2022/12/29 02:05:52;;;;;;;26.98;13.32;;;;;;;9.29;84.76;101054.47;5058561;28;20120;-66
2022/12/29 02:08:20;;;;;;;22.70;13.52;;;;;;;9.32;83.79;101049.91;5058975;28;20032;-66
2022/12/29 02:10:47;;;;;;;20.77;13.90;;;;;;;9.11;84.61;101040.06;5058493;28;20051;-66
2022/12/29 02:13:17;;;;;;;19.05;13.05;;;;;;;9.12;84.80;101039.09;5058235;28;20407;-66
2022/12/29 02:15:56;;;;;;;22.67;12.27;;;;;;;9.21;84.58;101042.81;5058259;28;20056;-67
2022/12/29 02:18:43;;;;;;;22.17;12.98;;;;;;;9.22;84.21;101037.41;5056904;28;20041;-66
2022/12/29 02:21:15;;;;;;;23.95;13.05;;;;;;;9.16;84.96;101032.63;5054362;28;20048;-66
2022/12/29 02:23:58;;;;;;;22.65;13.52;;;;;;;9.17;85.02;101036.09;5050808;28;20380;-66
2022/12/29 02:26:47;;;;;;;22.40;13.88;;;;;;;9.22;84.63;101031.28;5049411;28;20071;-64
2022/12/29 02:29:36;;;;;;;25.42;13.63;;;;;;;9.27;84.66;101022.03;5051523;28;20126;-66
2022/12/29 02:32:15;;;;;;;19.95;14.18;;;;;;;9.32;83.81;101026.94;5051550;28;20056;-66
2022/12/29 02:34:49;;;;;;;24.10;15.23;;;;;;;9.34;83.72;101024.19;5051860;28;20044;-63
2022/12/29 02:37:44;;;;;;;24.52;14.05;;;;;;;9.26;83.46;101024.78;5050532;28;20120;-65
2022/12/29 02:40:29;;;;;;;24.48;14.52;;;;;;;9.22;83.80;101010.16;4980290;28;20397;-66
2022/12/29 02:43:16;;;;;;;22.17;14.02;;;;;;;9.17;83.39;101013.16;5051002;28;20362;-65
2022/12/29 02:45:49;;;;;;;24.05;14.30;;;;;;;9.09;83.93;101020.00;5050904;28;20491;-65
2022/12/29 02:48:25;;;;;;;22.87;14.23;;;;;;;8.92;84.80;101011.63;5051971;28;20810;-65
2022/12/29 02:51:01;;;;;;;22.35;13.82;;;;;;;8.83;84.95;101009.69;5051318;28;20126;-66
2022/12/29 02:56:13;;;;;;;23.90;13.77;;;;;;;8.68;85.43;101010.88;5052660;28;20100;-65
2022/12/29 02:58:38;;;;;;;26.90;15.48;;;;;;;8.53;86.41;101002.34;5050593;28;20041;-65
2022/12/29 03:01:28;;;;;;;25.35;14.48;;;;;;;8.48;86.58;101008.94;5051690;28;20348;-66
2022/12/29 03:04:18;;;;;;;34.10;17.63;;;;;;;8.51;86.21;101006.91;5048879;28;20041;-66
2022/12/29 03:06:56;;;;;;;45.30;22.55;;;;;;;8.37;86.76;101001.00;5049543;28;20334;-66
2022/12/29 03:09:36;;;;;;;30.90;15.80;;;;;;;8.40;86.13;101008.69;5050721;28;20059;-66
2022/12/29 03:18:25;;;;;;;24.75;13.98;;;;;;;8.53;84.62;101001.50;5048996;28;20094;-65
2022/12/29 03:22:26;;;;;;;29.50;17.10;;;;;;;8.53;84.86;101007.63;5051931;28;20712;-65
2022/12/29 03:24:13;;;;;;;54.38;25.67;;;;;;;8.58;84.90;101005.47;5051406;28;20107;-66
2022/12/29 03:26:41;;;;;;;26.52;15.02;;;;;;;8.62;84.14;101004.28;5051163;28;20092;-66
2022/12/29 03:29:08;;;;;;;23.33;13.90;;;;;;;8.66;83.62;101004.03;5052291;28;20036;-66
2022/12/29 03:31:36;;;;;;;23.10;14.43;;;;;;;8.56;83.83;101007.41;5050374;28;20120;-65
2022/12/29 03:34:05;;;;;;;32.67;16.08;;;;;;;8.59;83.83;101006.31;5049923;28;20044;-65
2022/12/29 03:36:38;;;;;;;24.52;14.35;;;;;;;8.56;83.02;101014.47;5052335;28;20067;-65
2022/12/29 03:39:11;;;;;;;20.05;12.25;;;;;;;8.37;82.53;101003.66;5049700;28;20053;-67
2022/12/29 03:41:39;;;;;;;20.27;13.43;;;;;;;8.22;82.64;101005.59;5050354;28;20048;-65
2022/12/29 03:44:06;;;;;;;23.27;12.23;;;;;;;8.27;83.05;101004.28;5051578;28;20259;-66
2022/12/29 03:46:32;;;;;;;21.90;12.48;;;;;;;8.25;83.43;100997.44;5050527;28;20155;-66
2022/12/29 03:48:57;;;;;;;16.58;11.30;;;;;;;8.15;82.55;100993.81;5049589;28;20036;-66
2022/12/29 03:51:23;;;;;;;20.52;12.20;;;;;;;8.01;82.12;100994.88;5050549;28;20033;-66
2022/12/29 03:53:48;;;;;;;15.38;9.93;;;;;;;7.72;82.33;100986.50;5050883;28;20242;-67
2022/12/29 03:56:14;;;;;;;19.15;12.18;;;;;;;7.51;83.35;100991.53;5051746;28;20051;-66
2022/12/29 03:58:39;;;;;;;24.95;12.82;;;;;;;7.40;84.89;100994.13;5049982;28;20039;-66
2022/12/29 04:01:04;;;;;;;19.50;10.95;;;;;;;7.38;84.05;100995.19;5051277;28;20029;-65
2022/12/29 04:03:30;;;;;;;15.70;10.00;;;;;;;7.31;84.32;101002.69;5046114;28;20037;-65
2022/12/29 04:05:55;;;;;;;16.67;10.25;;;;;;;7.31;83.99;100993.00;5051348;28;20044;-66
2022/12/29 04:08:21;;;;;;;16.20;10.30;;;;;;;7.47;84.11;100998.00;5049663;28;20029;-66
2022/12/29 04:10:48;;;;;;;19.08;11.25;;;;;;;7.59;83.54;100997.09;5051412;28;20354;-66
2022/12/29 04:13:14;;;;;;;17.77;11.73;;;;;;;7.66;83.06;101000.13;5050056;28;20427;-65
2022/12/29 04:15:39;;;;;;;19.20;12.10;;;;;;;7.74;82.97;101013.59;5050912;28;20060;-65
2022/12/29 04:18:05;;;;;;;26.67;13.73;;;;;;;7.84;82.45;101005.84;5052352;28;20033;-66
2022/12/29 04:23:14;;;;;;;18.13;11.43;;;;;;;7.87;80.62;101011.72;5049330;28;20333;-66
2022/12/29 04:25:40;;;;;;;20.60;13.27;;;;;;;7.88;81.03;101016.03;5051576;28;20045;-66
2022/12/29 04:28:07;;;;;;;25.63;13.68;;;;;;;7.90;81.87;101021.19;5049366;28;20295;-66
2022/12/29 04:30:33;;;;;;;22.05;12.93;;;;;;;7.87;81.92;101016.16;5050131;28;20065;-66
2022/12/29 04:32:58;;;;;;;27.75;16.08;;;;;;;7.90;82.55;101022.03;5049944;28;20047;-65
2022/12/29 04:35:24;;;;;;;24.00;16.05;;;;;;;7.90;82.09;101029.09;5051192;28;20029;-65
2022/12/29 04:37:49;;;;;;;23.55;14.32;;;;;;;7.94;80.75;101030.56;5050170;28;20087;-66
2022/12/29 04:40:14;;;;;;;25.10;15.07;;;;;;;7.98;80.67;101029.38;5050457;28;20242;-65
2022/12/29 04:42:40;;;;;;;19.80;13.73;;;;;;;8.02;79.71;101036.13;5050187;28;20044;-66
2022/12/29 04:45:06;;;;;;;35.17;19.13;;;;;;;8.02;78.94;101036.13;5050504;28;20045;-66
2022/12/29 04:47:31;;;;;;;31.33;16.48;;;;;;;8.02;78.83;101038.75;5050783;28;20074;-66
2022/12/29 04:49:57;;;;;;;25.83;17.23;;;;;;;8.01;78.57;101043.19;5055149;28;20029;-65
2022/12/29 04:52:22;;;;;;;31.70;17.90;;;;;;;7.97;78.14;101043.53;5054964;28;20028;-66
2022/12/29 04:54:48;;;;;;;30.52;18.40;;;;;;;7.92;78.31;101043.88;5054690;28;20272;-65
2022/12/29 04:57:13;;;;;;;29.38;17.73;;;;;;;7.82;79.11;101042.84;5055662;28;20086;-65
2022/12/29 04:59:38;;;;;;;33.63;18.60;;;;;;;7.83;78.33;101041.91;5052458;28;20394;-66
2022/12/29 05:02:04;;;;;;;44.15;20.05;;;;;;;7.81;78.21;101046.44;5052878;28;20365;-65
2022/12/29 05:04:29;;;;;;;25.02;15.13;;;;;;;7.79;78.02;101042.25;5053553;28;20052;-66
2022/12/29 05:06:55;;;;;;;27.48;15.60;;;;;;;7.78;77.37;101045.84;5053954;28;20335;-65
2022/12/29 05:09:20;;;;;;;23.98;14.00;;;;;;;7.67;78.35;101047.47;5054411;28;20026;-65
2022/12/29 05:11:46;;;;;;;24.23;14.82;;;;;;;7.57;78.49;101054.34;5053511;28;20044;-65
2022/12/29 05:14:11;;;;;;;27.42;16.15;;;;;;;7.50;78.53;101055.75;5054459;28;20031;-65
2022/12/29 05:16:36;;;;;;;74.00;33.95;;;;;;;7.25;79.16;101055.78;5053772;28;20033;-66
2022/12/29 05:19:02;;;;;;;65.00;32.90;;;;;;;7.02;79.83;101054.78;5053955;28;20045;-65
2022/12/29 05:21:27;;;;;;;41.45;24.00;;;;;;;6.89;80.79;101049.53;5057877;28;20041;-65
2022/12/29 05:23:53;;;;;;;40.58;22.17;;;;;;;6.75;81.54;101048.78;5055839;28;20214;-66
2022/12/29 05:26:18;;;;;;;37.92;22.42;;;;;;;6.72;81.86;101048.06;5054104;28;20350;-65
2022/12/29 05:28:44;;;;;;;43.33;25.45;;;;;;;6.65;82.82;101045.94;5052216;28;20037;-65
2022/12/29 05:31:09;;;;;;;50.88;29.95;;;;;;;6.72;83.09;101049.84;5036043;28;20033;-65
2022/12/29 05:33:34;;;;;;;44.92;24.58;;;;;;;6.87;83.10;101040.03;5052510;28;20044;-65
2022/12/29 05:36:07;;;;;;;41.70;22.98;;;;;;;6.93;79.31;101043.09;5053980;28;20029;-66
2022/12/29 05:38:33;;;;;;;44.88;24.65;;;;;;;6.97;77.37;101044.56;5051996;28;20480;-65
2022/12/29 05:40:58;;;;;;;51.03;27.73;;;;;;;6.92;77.88;101045.84;5053202;28;20048;-65
2022/12/29 05:43:23;;;;;;;52.50;29.70;;;;;;;6.87;79.61;101047.94;5051563;28;20844;-65
2022/12/29 05:45:49;;;;;;;47.65;27.15;;;;;;;6.63;80.75;101039.94;5052992;28;20272;-65
2022/12/29 05:48:15;;;;;;;43.75;23.77;;;;;;;6.42;81.65;101036.16;5053122;28;20841;-64
2022/12/29 05:50:41;;;;;;;38.13;18.20;;;;;;;6.23;83.09;101031.25;5052355;28;20332;-65
2022/12/29 05:53:06;;;;;;;54.20;18.20;;;;;;;6.23;84.15;101028.63;5054320;28;20048;-66
2022/12/29 05:55:32;;;;;;;42.75;18.88;;;;;;;6.30;84.22;101028.13;5051316;28;20049;-67
2022/12/29 05:57:57;;;;;;;52.47;19.42;;;;;;;6.44;83.97;101037.72;5053091;28;20063;-65
2022/12/29 06:00:23;;;;;;;54.75;20.00;;;;;;;6.50;82.83;101042.56;5051346;28;20036;-66
2022/12/29 06:02:48;;;;;;;72.45;16.00;;;;;;;6.20;82.01;101039.34;5052341;28;20052;-66
2022/12/29 06:05:14;;;;;;;54.72;16.38;;;;;;;6.35;81.07;101030.47;5051939;28;20595;-66
2022/12/29 06:07:39;;;;;;;56.65;16.23;;;;;;;6.47;80.99;101031.41;5051451;28;20063;-66
2022/12/29 06:10:06;;;;;;;36.50;16.33;;;;;;;6.53;82.01;101034.47;5049865;28;20072;-65
2022/12/29 06:12:31;;;;;;;54.97;19.23;;;;;;;6.62;83.07;101031.22;5051184;28;20041;-65
2022/12/29 06:14:57;;;;;;;61.78;20.75;;;;;;;6.70;83.13;101034.16;5052535;28;20234;-66
2022/12/29 06:17:22;;;;;;;57.28;19.73;;;;;;;6.77;83.78;101037.22;5051880;28;20036;-65
2022/12/29 06:19:47;;;;;;;36.72;18.85;;;;;;;6.75;83.51;101040.91;5053170;28;20039;-65
2022/12/29 06:22:13;;;;;;;43.08;18.70;;;;;;;6.76;83.45;101046.06;5051437;28;20342;-65
2022/12/29 06:24:39;;;;;;;71.22;28.75;;;;;;;6.83;83.65;101044.69;5053895;28;20037;-66
2022/12/29 06:27:05;;;;;;;68.75;27.17;;;;;;;6.89;82.90;101049.53;5050627;28;20039;-65
2022/12/29 06:29:30;;;;;;;55.20;25.25;;;;;;;6.91;82.15;101047.63;5050836;28;20033;-66
2022/12/29 06:31:59;;;;;;;112.80;34.63;;;;;;;6.97;81.92;101041.94;5051859;28;21820;-66
2022/12/29 06:34:25;;;;;;;88.28;31.88;;;;;;;6.84;83.60;101043.72;5051486;28;20092;-66
2022/12/29 06:36:51;;;;;;;70.82;31.60;;;;;;;6.90;83.59;101051.22;5052670;28;20049;-66
2022/12/29 06:39:16;;;;;;;72.50;34.80;;;;;;;6.99;83.42;101061.09;5051294;28;20029;-66
2022/12/29 06:41:42;;;;;;;77.75;28.00;;;;;;;7.03;82.28;101057.31;5053961;28;20095;-65
2022/12/29 06:44:07;;;;;;;65.38;27.83;;;;;;;7.12;81.26;101061.06;5034893;28;20400;-66
2022/12/29 06:46:32;;;;;;;64.20;23.83;;;;;;;7.07;81.45;101065.81;5052872;28;20393;-65
2022/12/29 06:48:58;;;;;;;64.07;23.58;;;;;;;7.09;83.13;101065.72;5050747;28;20334;-65
2022/12/29 06:51:23;;;;;;;81.80;26.20;;;;;;;7.14;82.86;101071.50;5053184;28;20083;-66
2022/12/29 06:53:49;;;;;;;79.15;29.73;;;;;;;7.16;83.87;101075.72;5051461;28;20040;-66
2022/12/29 06:56:14;;;;;;;79.53;37.58;;;;;;;7.10;85.08;101070.88;5052324;28;20047;-66
2022/12/29 06:58:40;;;;;;;109.00;48.38;;;;;;;7.22;84.72;101077.91;5050667;28;20086;-66
2022/12/29 07:01:05;;;;;;;117.47;47.90;;;;;;;7.09;83.73;101085.00;5050987;28;20049;-65
2022/12/29 07:03:31;;;;;;;118.20;48.45;;;;;;;6.67;84.20;101087.00;5052568;28;20118;-66
2022/12/29 07:05:57;;;;;;;77.63;32.92;;;;;;;6.66;83.90;101087.13;5051132;28;20238;-65
2022/12/29 07:08:23;;;;;;;52.03;25.75;;;;;;;6.35;85.47;101081.28;5052532;28;20230;-66
2022/12/29 07:10:49;;;;;;;45.90;20.02;;;;;;;6.18;86.73;101080.69;5050257;28;20041;-66
2022/12/29 07:13:14;;;;;;;51.78;23.65;;;;;;;6.26;87.24;101084.53;5048776;28;20121;-65
2022/12/29 07:15:40;;;;;;;61.65;27.25;;;;;;;6.27;88.27;101091.47;5050163;28;20229;-66
2022/12/29 07:18:05;;;;;;;39.22;21.70;;;;;;;6.12;88.87;101091.63;5052993;28;20028;-66
2022/12/29 07:20:31;;;;;;;48.80;22.00;;;;;;;6.24;89.09;101089.06;5041534;28;20099;-65
2022/12/29 07:22:57;;;;;;;47.92;20.67;;;;;;;6.17;90.08;101084.25;5042557;28;20061;-65
2022/12/29 07:25:22;;;;;;;57.90;27.58;;;;;;;6.03;91.46;101086.00;5041256;28;20207;-66
2022/12/29 07:27:48;;;;;;;52.00;28.48;;;;;;;6.33;90.37;101092.84;5040811;28;20032;-65
2022/12/29 07:30:14;;;;;;;45.00;26.20;;;;;;;6.12;91.24;101086.34;5037910;28;20021;-65
2022/12/29 07:32:40;;;;;;;55.00;22.45;;;;;;;6.27;91.43;101095.91;5038013;28;20444;-65
2022/12/29 07:35:06;;;;;;;54.15;22.00;;;;;;;6.40;91.22;101094.13;5038025;28;20033;-66
2022/12/29 07:37:31;;;;;;;65.75;25.50;;;;;;;6.31;91.45;101082.44;5037526;28;20317;-64
2022/12/29 07:39:57;;;;;;;68.32;24.55;;;;;;;6.36;93.00;101085.59;5038467;28;20141;-67
2022/12/29 07:42:22;;;;;;;51.38;24.67;;;;;;;6.45;93.27;101091.19;5037870;28;20107;-67
2022/12/29 07:44:48;;;;;;;49.15;25.90;;;;;;;6.70;93.33;101088.59;5037868;28;20056;-67
2022/12/29 07:47:13;;;;;;;55.40;25.35;;;;;;;6.70;93.68;101086.81;5037166;28;20331;-67
2022/12/29 07:49:39;;;;;;;61.13;25.27;;;;;;;6.85;93.15;101086.69;5037539;28;20044;-67
2022/12/29 07:52:04;;;;;;;49.60;23.60;;;;;;;6.86;92.56;101080.50;5037211;28;20033;-66
2022/12/29 07:54:30;;;;;;;52.35;26.02;;;;;;;6.95;93.46;101083.31;5036902;28;20041;-67
2022/12/29 07:56:55;;;;;;;56.78;30.50;;;;;;;7.20;93.64;101092.16;5038207;28;20101;-66
2022/12/29 07:59:21;;;;;;;72.30;36.17;;;;;;;7.30;93.02;101085.31;5037999;28;20084;-66
2022/12/29 08:01:46;;;;;;;81.38;37.55;;;;;;;7.47;92.20;101090.22;5037021;28;20030;-66
2022/12/29 08:04:12;;;;;;;63.80;34.47;;;;;;;7.53;92.09;101091.59;5037487;28;20037;-66
2022/12/29 08:06:37;;;;;;;68.88;36.28;;;;;;;7.50;91.92;101094.44;5037169;28;20283;-66
2022/12/29 08:09:03;;;;;;;63.78;33.58;;;;;;;7.66;91.84;101092.38;5037485;28;20105;-67
2022/12/29 08:11:28;;;;;;;49.85;32.88;;;;;;;7.77;90.54;101096.88;5038810;28;20057;-67
2022/12/29 08:13:54;;;;;;;52.72;30.95;;;;;;;7.52;91.49;101101.28;5037214;28;20388;-65
2022/12/29 08:16:19;;;;;;;54.70;30.02;;;;;;;7.75;90.92;101097.00;5037137;28;20042;-63
2022/12/29 08:18:45;;;;;;;53.70;28.55;;;;;;;7.88;90.13;101091.69;5037102;28;20041;-64
2022/12/29 08:21:11;;;;;;;47.03;28.38;;;;;;;8.07;90.02;101099.91;5037603;28;20101;-63
2022/12/29 08:23:36;;;;;;;43.85;24.67;;;;;;;8.19;88.80;101099.00;5038330;28;20465;-64
2022/12/29 08:26:05;;;;;;;41.83;24.50;;;;;;;8.29;89.39;101097.38;5044139;28;20056;-65
2022/12/29 08:28:32;;;;;;;42.42;25.80;;;;;;;8.48;89.00;101093.41;5048282;28;20076;-64
2022/12/29 08:31:00;;;;;;;46.05;27.70;;;;;;;8.76;87.75;101093.00;5042598;28;20026;-64
2022/12/29 08:33:26;;;;;;;42.08;24.95;;;;;;;8.90;85.80;101089.31;5040658;28;20029;-64
2022/12/29 08:35:51;;;;;;;44.60;27.75;;;;;;;8.99;85.57;101082.47;5050287;28;20033;-65
2022/12/29 08:38:17;;;;;;;43.97;25.70;;;;;;;9.08;85.29;101079.94;5045331;28;20100;-64
2022/12/29 08:40:43;;;;;;;44.25;26.27;;;;;;;9.01;85.18;101081.38;5053860;28;20056;-65
2022/12/29 08:43:09;;;;;;;45.65;26.10;;;;;;;9.00;85.21;101077.06;5054503;28;20027;-64
2022/12/29 08:45:34;;;;;;;41.05;25.92;;;;;;;9.09;85.14;101076.34;5052440;28;20041;-65
2022/12/29 08:48:00;;;;;;;39.35;23.40;;;;;;;9.11;85.17;101079.69;5053725;28;20104;-64
2022/12/29 08:50:25;;;;;;;41.15;23.58;;;;;;;9.11;84.85;101078.88;5051775;28;20035;-64
2022/12/29 08:52:51;;;;;;;37.80;24.23;;;;;;;9.06;85.86;101071.28;5052411;28;20238;-64
2022/12/29 08:55:16;;;;;;;39.53;23.27;;;;;;;9.27;85.66;101066.97;5052306;28;20254;-65
2022/12/29 08:57:42;;;;;;;33.55;21.95;;;;;;;9.40;84.67;101063.38;5052923;28;20401;-64
2022/12/29 09:00:08;;;;;;;33.63;22.15;;;;;;;9.40;84.80;101061.56;5053886;28;20036;-65
2022/12/29 09:02:33;;;;;;;36.72;22.15;;;;;;;9.47;84.51;101056.63;5052812;28;20040;-65
2022/12/29 09:05:00;;;;;;;36.08;22.70;;;;;;;9.41;84.45;101051.84;5052654;28;20449;-63
2022/12/29 09:07:25;;;;;;;35.85;21.90;;;;;;;9.54;83.85;101050.72;5053210;28;20037;-64
2022/12/29 09:09:51;;;;;;;35.28;19.95;;;;;;;9.64;83.30;101044.69;5054981;28;20071;-64
2022/12/29 09:12:17;;;;;;;34.55;20.60;;;;;;;9.65;83.66;101039.28;5053221;28;20041;-64
2022/12/29 09:14:44;;;;;;;33.85;21.00;;;;;;;9.64;83.89;101040.25;5053869;28;20044;-64
2022/12/29 09:19:54;;;;;;;33.13;20.48;;;;;;;9.76;83.48;101023.38;5051920;28;20144;-65
2022/12/29 09:22:19;;;;;;;32.55;21.65;;;;;;;9.82;82.65;101027.31;5054159;28;20342;-64
2022/12/29 09:24:45;;;;;;;33.85;22.23;;;;;;;9.89;83.10;101018.75;5059582;28;20044;-64
2022/12/29 09:27:10;;;;;;;32.75;21.73;;;;;;;9.96;83.36;101016.44;5059451;28;20040;-65
2022/12/29 09:29:36;;;;;;;31.50;20.00;;;;;;;10.07;82.46;101018.19;5059446;28;20376;-65
2022/12/29 09:32:01;;;;;;;29.83;19.70;;;;;;;10.00;83.19;101012.56;5059689;28;20041;-63
2022/12/29 09:34:27;;;;;;;32.78;20.05;;;;;;;9.98;83.65;101009.22;5059185;28;20294;-64
2022/12/29 09:36:52;;;;;;;33.72;20.52;;;;;;;10.00;83.37;101011.75;5059109;28;20262;-64
2022/12/29 09:39:18;;;;;;;35.83;20.73;;;;;;;10.12;82.97;101010.72;5059042;28;20048;-64
2022/12/29 09:42:00;;;;;;;32.47;19.67;;;;;;;10.17;83.35;100997.94;5059540;28;20040;-65
2022/12/29 09:44:46;;;;;;;28.23;17.17;;;;;;;10.23;82.91;100987.69;5058519;28;20029;-64
2022/12/29 09:47:14;;;;;;;30.58;18.27;;;;;;;10.24;82.85;100985.91;5058663;28;20045;-64
2022/12/29 09:49:45;;;;;;;29.45;16.73;;;;;;;10.28;82.29;100978.53;5040340;28;20051;-64
2022/12/29 09:52:15;;;;;;;27.05;17.73;;;;;;;10.30;83.29;100971.28;5058937;28;20311;-63
2022/12/29 09:54:50;;;;;;;26.67;17.10;;;;;;;10.36;81.90;100971.63;5058540;28;20044;-64
2022/12/29 09:57:25;;;;;;;25.40;16.10;;;;;;;10.42;81.36;100967.63;5059117;28;20052;-65
2022/12/29 10:00:04;;;;;;;29.63;16.50;;;;;;;10.48;81.45;100965.31;5057259;28;20051;-64
2022/12/29 10:02:51;;;;;;;33.83;19.67;;;;;;;10.56;81.35;100964.63;5058550;28;20098;-64
2022/12/29 10:05:20;;;;;;;30.85;19.27;;;;;;;10.57;81.72;100958.38;5058470;28;20033;-64
2022/12/29 10:08:08;;;;;;;29.60;17.77;;;;;;;10.52;81.43;100942.03;5058958;28;20120;-64
2022/12/29 10:10:40;;;;;;;29.42;18.30;;;;;;;10.50;82.30;100949.28;5057486;28;20045;-64
2022/12/29 10:13:50;;;;;;;31.45;18.38;;;;;;;10.46;82.14;100945.22;5041114;28;20055;-65
2022/12/29 10:16:50;;;;;;;29.85;19.05;;;;;;;10.51;81.77;100945.66;5040304;28;20049;-64
2022/12/29 10:19:45;;;;;;;29.02;17.80;;;;;;;10.35;82.62;100942.63;5055104;28;20049;-65
2022/12/29 10:22:13;;;;;;;33.75;19.58;;;;;;;10.39;82.06;100941.38;5057270;28;20041;-64
2022/12/29 10:24:39;;;;;;;32.17;19.95;;;;;;;10.45;82.71;100936.44;5058106;28;20039;-66
2022/12/29 10:27:11;;;;;;;30.00;18.85;;;;;;;10.32;82.84;100930.50;5058538;28;20053;-64
2022/12/29 10:29:43;;;;;;;29.50;18.58;;;;;;;10.43;83.09;100927.78;5058243;28;20199;-64
2022/12/29 10:32:38;;;;;;;31.38;19.13;;;;;;;10.42;82.61;100926.09;5058313;28;20398;-65
2022/12/29 10:35:14;;;;;;;33.60;20.48;;;;;;;10.41;83.08;100928.88;5058005;28;20041;-65
2022/12/29 10:38:04;;;;;;;31.48;20.02;;;;;;;10.21;83.47;100912.88;5056713;28;20059;-64
2022/12/29 10:40:58;;;;;;;32.60;19.98;;;;;;;10.16;83.89;100915.03;5058493;28;20049;-65
2022/12/29 10:43:45;;;;;;;30.35;19.33;;;;;;;10.18;84.73;100917.56;5057958;28;20250;-65
2022/12/29 10:46:14;;;;;;;31.13;19.30;;;;;;;10.13;84.96;100917.13;5056602;28;20104;-65
2022/12/29 10:48:40;;;;;;;30.52;18.85;;;;;;;10.13;85.52;100912.66;5056828;28;20033;-65
2022/12/29 10:51:08;;;;;;;34.83;19.77;;;;;;;10.25;84.75;100910.81;5067334;28;20048;-65
2022/12/29 10:53:52;;;;;;;30.52;19.52;;;;;;;10.26;85.26;100903.69;5057912;28;20863;-63
2022/12/29 10:56:52;;;;;;;29.42;18.08;;;;;;;10.27;84.76;100902.72;5058337;28;20028;-63
2022/12/29 10:59:18;;;;;;;31.48;17.95;;;;;;;10.28;84.42;100893.81;5051269;28;20342;-65
2022/12/29 11:02:06;;;;;;;26.70;18.85;;;;;;;10.26;84.22;100891.31;5057962;28;20033;-64
2022/12/29 11:04:50;;;;;;;27.52;18.13;;;;;;;10.32;83.11;100887.28;5056594;28;20094;-63
2022/12/29 11:07:18;;;;;;;30.52;17.92;;;;;;;10.19;83.19;100890.13;5056657;28;20072;-63
2022/12/29 11:09:45;;;;;;;29.63;17.65;;;;;;;10.05;84.48;100890.47;5056403;28;20211;-64
2022/12/29 11:12:28;;;;;;;32.38;16.85;;;;;;;10.14;84.07;100887.88;5056559;28;20037;-63
2022/12/29 11:15:23;;;;;;;32.15;17.65;;;;;;;10.30;82.13;100881.28;5056277;28;20025;-66
2022/12/29 11:17:59;;;;;;;25.55;15.75;;;;;;;10.29;81.98;100872.50;5038720;28;20389;-64
2022/12/29 11:20:27;;;;;;;27.83;16.50;;;;;;;10.46;83.16;100876.38;5056784;28;20079;-65
2022/12/29 11:22:52;;;;;;;21.60;14.02;;;;;;;10.55;81.25;100864.97;5056905;28;20531;-64
2022/12/29 11:25:18;;;;;;;26.00;16.38;;;;;;;10.54;80.56;100863.31;5056201;28;20131;-65
2022/12/29 11:28:03;;;;;;;26.65;15.35;;;;;;;10.30;81.39;100865.41;5056798;28;20045;-64
2022/12/29 11:30:31;;;;;;;28.38;15.63;;;;;;;10.39;81.32;100861.97;5056528;28;20044;-65
2022/12/29 11:32:58;;;;;;;27.98;16.15;;;;;;;10.30;82.10;100860.94;5057244;28;20037;-64
2022/12/29 11:35:33;;;;;;;30.75;18.27;;;;;;;10.47;81.48;100860.34;5056184;28;20075;-65
2022/12/29 11:38:00;;;;;;;29.60;18.00;;;;;;;10.58;81.43;100855.91;5055892;28;20139;-64
2022/12/29 11:40:26;;;;;;;32.25;18.35;;;;;;;10.67;80.61;100849.81;5054052;28;20051;-65
2022/12/29 11:42:55;;;;;;;28.17;17.70;;;;;;;10.74;81.34;100850.94;5052574;28;20108;-65
2022/12/29 11:45:32;;;;;;;28.88;17.90;;;;;;;10.82;80.76;100861.69;5051463;28;20289;-64
2022/12/29 11:48:19;;;;;;;27.40;18.80;;;;;;;10.89;80.25;100844.28;5050226;28;20043;-65
2022/12/29 11:50:51;;;;;;;26.77;17.88;;;;;;;11.01;79.93;100850.28;5051388;28;20095;-65
2022/12/29 11:53:24;;;;;;;25.85;16.10;;;;;;;11.04;78.76;100850.00;5051961;28;20028;-65
2022/12/29 11:55:56;;;;;;;22.98;14.77;;;;;;;10.87;79.58;100843.56;5050919;28;20033;-65
2022/12/29 11:58:32;;;;;;;25.60;16.05;;;;;;;10.72;80.18;100837.84;5053515;28;20067;-65
2022/12/29 12:01:03;;;;;;;28.52;17.90;;;;;;;10.86;80.03;100834.78;5054809;28;20135;-64
2022/12/29 12:03:33;;;;;;;28.55;17.55;;;;;;;10.85;79.82;100826.97;5051451;28;20040;-65
2022/12/29 12:06:01;;;;;;;28.50;18.23;;;;;;;10.73;80.25;100826.25;5054731;28;20044;-64
2022/12/29 12:08:29;;;;;;;30.55;17.35;;;;;;;10.55;81.13;100823.44;5055173;28;20210;-65